Barkam, China
Current Conditions -  °F | °C
As of 2:00 AM on Wednesday 28 Jan 2015 (Local Time) from ZUUU Reporting Station
Light Rain Light Rain  
Wind Chill: 43°   Ceiling: 2000
Heat Index: 46°   Visibility: 2.1mi
Dew Point: 43°   Wind: 7mph
Humidity: 87%   Direction: 10°N
Pressure: 29.97"   Gusts: NA
Location:  31.9°N, 102.23°E
Report Text: ZUUU 271800Z 01003MPS 330V040 3500 -RA BR SCT009 BKN02008/06 Q1015 NOSIG
Loading
Personal Weather Stations






























Interactive Weather Map New forecast layout! Learn more

10-Day Weather Forecast

Advertisements
Track Severe Weather on mobile